Home   Weather   USA   Los Angeles   Past weeks
Flag for USA

Past Weather in Los Angeles, California, USA — October 2021

Currently: 60 °F. Fog. (Weather station: Los Angeles / USC Campus Downtown, USA). See more current weather

October 2021 Weather in Los Angeles — Graph

°F

High & Low Weather Summary for October 2021

 TemperatureHumidityPressure
High92 °F (Oct 3, 12:52 pm)100% (Oct 30, 1:52 am)30.16 "Hg (Oct 30, 1:52 am)
Low51 °F (Oct 13, 3:52 am)9% (Oct 16, 11:52 am)29.61 "Hg (Oct 11, 4:52 pm)
Average65 °F62%29.96 "Hg
* Reported Oct 1 12:52 am — Oct 31 11:52 pm, Los Angeles. Weather by CustomWeather, © 2022

Note: Actual official high and low records may vary slightly from our data, if they occured in-between our weather recording intervals... More about our weather records

Los Angeles Weather History for October 1, 2021

Scroll right to see more
 ConditionsComfort  
Time TempWeatherWind HumidityBarometerVisibility
12:52 am
Fri, Oct 1
64 °FClear.No wind70%29.90 "Hg10 mi
1:52 am63 °FClear.No wind73%29.90 "Hg10 mi
2:52 am62 °FClear.No wind65%29.90 "Hg10 mi
3:52 am62 °FClear.No wind54%29.89 "Hg10 mi
4:52 am64 °FClear.No wind33%29.90 "Hg10 mi
5:52 am60 °FClear.No wind46%29.92 "Hg10 mi
6:20 am60 °FClear.No wind46%29.93 "Hg3 mi
6:52 am60 °FSunny.No wind47%29.93 "Hg10 mi
7:52 am63 °FSunny.No wind47%29.95 "Hg10 mi
8:52 am70 °FSunny.No wind35%29.95 "Hg10 mi
9:52 am78 °FSunny.3 mph16%29.95 "Hg10 mi
10:52 am84 °FSunny.3 mph13%29.95 "Hg10 mi
12:52 pm87 °FSunny.No wind14%29.92 "Hg10 mi
1:52 pm89 °FSunny.3 mph17%29.90 "Hg10 mi
2:52 pm84 °FSunny.No wind32%29.90 "Hg10 mi
3:52 pm83 °FSunny.6 mph30%29.90 "Hg10 mi
4:52 pm81 °FSunny.No wind30%29.90 "Hg10 mi
5:52 pm78 °FSunny.3 mph36%29.90 "Hg10 mi
6:52 pm73 °FClear.3 mph51%29.92 "Hg10 mi
7:52 pm70 °FClear.No wind73%29.93 "Hg10 mi
8:52 pm69 °FClear.No wind73%29.94 "Hg10 mi
9:52 pm67 °FClear.No wind87%29.95 "Hg7 mi
10:52 pm66 °FClear.No wind84%29.96 "Hg9 mi
11:52 pm65 °FClear.No wind87%29.97 "Hg9 mi
Weather by CustomWeather, © 2022

See weather overview